Time;durP1;ratioP1;P1;durP2;ratioP2;P2;SDS_P1;SDS_P2;PMS_P1;PMS_P2;Temp;Humidity;BMP_temperature;BMP_pressure;BME280_temperature;BME280_humidity;BME280_pressure;Samples;Min_cycle;Max_cycle;Signal;HPM_P1;HPM_P2
2022/09/01 00:01:19;;;;;;;;;;;;;;;;;;5075455;28;20403;-78
2022/09/01 00:03:47;;;;;;;;;;;;;;;;;;5092776;28;19969;-77
2022/09/01 00:06:12;;;;;;;;;;;;;;;;;;5092937;28;19944;-77
2022/09/01 00:08:38;;;;;;;;;;;;;;;;;;5093232;28;19952;-77
2022/09/01 00:11:03;;;;;;;;;;;;;;;;;;5075857;28;19916;-77
2022/09/01 00:13:32;;;;;;;;;;;;;;;;;;5075873;28;19920;-77
2022/09/01 00:15:57;;;;;;;;;;;;;;;;;;5094239;28;19958;-77
2022/09/01 00:18:23;;;;;;;;;;;;;;;;;;5094376;28;20355;-77
2022/09/01 00:20:48;;;;;;;;;;;;;;;;;;5093247;28;20019;-77
2022/09/01 00:23:13;;;;;;;;;;;;;;;;;;5092527;28;19949;-77
2022/09/01 00:25:39;;;;;;;;;;;;;;;;;;5092916;28;19926;-77
2022/09/01 00:28:04;;;;;;;;;;;;;;;;;;5093832;28;19912;-77
2022/09/01 00:30:30;;;;;;;;;;;;;;;;;;5075692;28;20491;-77
2022/09/01 00:32:55;;;;;;;;;;;;;;;;;;5075696;28;19912;-77
2022/09/01 00:35:20;;;;;;;;;;;;;;;;;;5093686;28;19924;-77
2022/09/01 00:37:45;;;;;;;;;;;;;;;;;;5093962;28;19920;-77
2022/09/01 00:40:12;;;;;;;;;;;;;;;;;;5075530;28;20290;-78
2022/09/01 00:42:38;;;;;;;;;;;;;;;;;;5092655;28;19912;-77
2022/09/01 00:45:04;;;;;;;;;;;;;;;;;;5092437;28;19919;-77
2022/09/01 00:47:29;;;;;;;;;;;;;;;;;;5092304;28;19912;-77
2022/09/01 00:49:55;;;;;;;;;;;;;;;;;;5075466;28;19918;-77
2022/09/01 00:52:28;;;;;;;;;;;;;;;;;;5093866;28;19916;-77
2022/09/01 00:54:57;;;;;;;;;;;;;;;;;;5092591;28;20378;-77
2022/09/01 00:57:22;;;;;;;;;;;;;;;;;;5075198;28;20053;-78
2022/09/01 00:59:52;;;;;;;;;;;;;;;;;;5092304;28;20324;-77
2022/09/01 01:02:17;;;;;;;;;;;;;;;;;;5092282;28;20383;-78
2022/09/01 01:04:43;;;;;;;;;;;;;;;;;;5075168;28;19952;-78
2022/09/01 01:07:08;;;;;;;;;;;;;;;;;;5093643;28;20290;-77
2022/09/01 01:09:35;;;;;;;;;;;;;;;;;;5075192;28;19916;-77
2022/09/01 01:12:00;;;;;;;;;;;;;;;;;;5092189;28;19912;-77
2022/09/01 01:14:28;;;;;;;;;;;;;;;;;;5075838;28;19919;-77
2022/09/01 01:16:54;;;;;;;;;;;;;;;;;;5096258;28;19965;-78
2022/09/01 01:24:54;;;;;;;;;;;;;;;;;;5096873;28;19924;-77
2022/09/01 01:27:20;;;;;;;;;;;;;;;;;;5095972;28;19920;-77
2022/09/01 01:29:46;;;;;;;;;;;;;;;;;;5097189;28;20046;-77
2022/09/01 01:32:11;;;;;;;;;;;;;;;;;;5095983;28;19973;-78
2022/09/01 01:34:39;;;;;;;;;;;;;;;;;;5078841;28;19920;-77
2022/09/01 01:37:04;;;;;;;;;;;;;;;;;;5095618;28;20011;-77
2022/09/01 01:39:29;;;;;;;;;;;;;;;;;;5096997;28;20354;-77
2022/09/01 01:41:56;;;;;;;;;;;;;;;;;;5096884;28;20333;-77
2022/09/01 01:44:23;;;;;;;;;;;;;;;;;;5096226;28;19916;-77
2022/09/01 01:46:50;;;;;;;;;;;;;;;;;;5095624;28;20026;-77
2022/09/01 01:49:19;;;;;;;;;;;;;;;;;;5095828;28;19973;-77
2022/09/01 01:51:46;;;;;;;;;;;;;;;;;;5095558;28;20013;-78
2022/09/01 01:54:11;;;;;;;;;;;;;;;;;;5096837;28;19950;-77
2022/09/01 01:56:38;;;;;;;;;;;;;;;;;;5097195;28;20302;-77
2022/09/01 01:59:04;;;;;;;;;;;;;;;;;;5096725;28;19916;-77
2022/09/01 02:01:30;;;;;;;;;;;;;;;;;;5095448;28;19916;-77
2022/09/01 02:03:56;;;;;;;;;;;;;;;;;;5078385;28;19927;-77
2022/09/01 02:06:23;;;;;;;;;;;;;;;;;;5096420;28;19916;-77
2022/09/01 02:08:51;;;;;;;;;;;;;;;;;;5095182;28;19916;-76
2022/09/01 02:11:16;;;;;;;;;;;;;;;;;;5096661;28;19919;-76
2022/09/01 02:13:42;;;;;;;;;;;;;;;;;;5095693;28;19920;-76
2022/09/01 02:16:11;;;;;;;;;;;;;;;;;;5096604;28;19951;-76
2022/09/01 02:18:37;;;;;;;;;;;;;;;;;;5078001;28;19916;-78
2022/09/01 02:21:09;;;;;;;;;;;;;;;;;;5095233;28;19965;-78
2022/09/01 02:23:35;;;;;;;;;;;;;;;;;;5075038;28;19963;-78
2022/09/01 02:26:01;;;;;;;;;;;;;;;;;;5075025;28;19951;-79
2022/09/01 02:28:27;;;;;;;;;;;;;;;;;;5075940;28;20387;-78
2022/09/01 02:30:56;;;;;;;;;;;;;;;;;;5074542;28;19916;-77
2022/09/01 02:33:22;;;;;;;;;;;;;;;;;;5074535;28;19943;-78
2022/09/01 02:35:48;;;;;;;;;;;;;;;;;;5074435;28;19916;-78
2022/09/01 02:38:14;;;;;;;;;;;;;;;;;;5074386;28;19955;-78
2022/09/01 02:40:40;;;;;;;;;;;;;;;;;;5075580;28;19920;-78
2022/09/01 02:43:05;;;;;;;;;;;;;;;;;;5075890;28;20401;-76
2022/09/01 02:45:31;;;;;;;;;;;;;;;;;;5074604;28;19914;-76
2022/09/01 02:47:57;;;;;;;;;;;;;;;;;;5074271;28;19921;-78
2022/09/01 02:50:23;;;;;;;;;;;;;;;;;;5074222;28;19917;-76
2022/09/01 02:52:51;;;;;;;;;;;;;;;;;;5074443;28;19917;-77
2022/09/01 02:55:19;;;;;;;;;;;;;;;;;;5074184;28;19913;-75
2022/09/01 02:57:47;;;;;;;;;;;;;;;;;;5073882;28;20346;-75
2022/09/01 03:00:21;;;;;;;;;;;;;;;;;;5073937;28;20007;-75
2022/09/01 03:02:51;;;;;;;;;;;;;;;;;;5074139;28;20050;-77
2022/09/01 03:05:24;;;;;;;;;;;;;;;;;;5075023;28;20007;-77
2022/09/01 03:07:52;;;;;;;;;;;;;;;;;;5073905;28;19921;-77
2022/09/01 03:10:20;;;;;;;;;;;;;;;;;;5073860;28;20355;-77
2022/09/01 03:12:45;;;;;;;;;;;;;;;;;;5074375;28;19913;-77
2022/09/01 03:15:12;;;;;;;;;;;;;;;;;;5075021;28;19927;-77
2022/09/01 03:17:37;;;;;;;;;;;;;;;;;;5073556;28;19973;-77
2022/09/01 03:20:02;;;;;;;;;;;;;;;;;;5073935;28;19912;-77
2022/09/01 03:22:28;;;;;;;;;;;;;;;;;;5086203;28;19946;-77
2022/09/01 03:24:55;;;;;;;;;;;;;;;;;;5094937;28;19938;-77
2022/09/01 03:27:20;;;;;;;;;;;;;;;;;;5077266;28;20329;-77
2022/09/01 03:29:45;;;;;;;;;;;;;;;;;;5076588;28;19912;-77
2022/09/01 03:32:11;;;;;;;;;;;;;;;;;;5094064;28;19924;-78
2022/09/01 03:34:37;;;;;;;;;;;;;;;;;;5095017;28;19912;-77
2022/09/01 03:37:06;;;;;;;;;;;;;;;;;;5092598;28;20287;-77
2022/09/01 03:39:32;;;;;;;;;;;;;;;;;;5093285;28;20418;-77
2022/09/01 03:41:57;;;;;;;;;;;;;;;;;;5094598;28;19999;-77
2022/09/01 03:44:23;;;;;;;;;;;;;;;;;;5093555;28;20003;-77
2022/09/01 03:46:48;;;;;;;;;;;;;;;;;;5076643;28;19927;-77
2022/09/01 03:49:14;;;;;;;;;;;;;;;;;;5076214;28;20289;-77
2022/09/01 03:51:41;;;;;;;;;;;;;;;;;;5094471;28;19927;-77
2022/09/01 03:54:07;;;;;;;;;;;;;;;;;;5093206;28;19927;-77
2022/09/01 03:56:32;;;;;;;;;;;;;;;;;;5093201;28;19946;-77
2022/09/01 03:58:58;;;;;;;;;;;;;;;;;;5093277;28;20469;-77
2022/09/01 04:01:24;;;;;;;;;;;;;;;;;;5094661;28;20276;-77
2022/09/01 04:03:50;;;;;;;;;;;;;;;;;;5075892;28;19923;-77
2022/09/01 04:06:18;;;;;;;;;;;;;;;;;;5093058;28;20368;-78
2022/09/01 04:08:45;;;;;;;;;;;;;;;;;;5075935;28;19969;-77
2022/09/01 04:11:12;;;;;;;;;;;;;;;;;;5094351;28;19916;-77
2022/09/01 04:13:38;;;;;;;;;;;;;;;;;;5093136;28;19935;-79
2022/09/01 04:18:03;;;;;;;;;;;;;;;;;;5093307;28;19965;-78
2022/09/01 04:18:55;;;;;;;;;;;;;;;;;;5093245;28;20293;-78
2022/09/01 04:21:21;;;;;;;;;;;;;;;;;;5093027;28;19916;-79
2022/09/01 04:23:47;;;;;;;;;;;;;;;;;;5075745;28;19992;-79
2022/09/01 04:26:14;;;;;;;;;;;;;;;;;;5092746;28;19924;-78
2022/09/01 04:28:47;;;;;;;;;;;;;;;;;;5092733;28;19916;-78
2022/09/01 04:31:16;;;;;;;;;;;;;;;;;;5075493;28;20408;-80
2022/09/01 04:33:45;;;;;;;;;;;;;;;;;;5093033;28;20021;-81
2022/09/01 04:36:21;;;;;;;;;;;;;;;;;;5093992;28;19920;-79
2022/09/01 04:38:48;;;;;;;;;;;;;;;;;;5096639;28;19916;-77
2022/09/01 04:41:16;;;;;;;;;;;;;;;;;;5078622;28;19991;-77
2022/09/01 04:43:43;;;;;;;;;;;;;;;;;;5076036;28;19937;-77
2022/09/01 04:46:11;;;;;;;;;;;;;;;;;;5092984;28;19916;-77
2022/09/01 04:48:37;;;;;;;;;;;;;;;;;;5093804;28;19924;-78
2022/09/01 04:51:07;;;;;;;;;;;;;;;;;;5092632;28;19919;-78
2022/09/01 04:53:32;;;;;;;;;;;;;;;;;;5093828;28;19912;-77
2022/09/01 04:56:03;;;;;;;;;;;;;;;;;;5093549;28;19922;-77
2022/09/01 04:58:29;;;;;;;;;;;;;;;;;;5075696;28;20294;-78
2022/09/01 05:00:55;;;;;;;;;;;;;;;;;;5094371;28;19923;-77
2022/09/01 05:03:22;;;;;;;;;;;;;;;;;;5092629;28;19920;-78
2022/09/01 05:05:48;;;;;;;;;;;;;;;;;;5075881;28;20315;-77
2022/09/01 05:08:15;;;;;;;;;;;;;;;;;;5092558;28;19955;-78
2022/09/01 05:10:41;;;;;;;;;;;;;;;;;;5092452;28;19918;-78
2022/09/01 05:13:08;;;;;;;;;;;;;;;;;;5092501;28;20354;-78
2022/09/01 05:15:38;;;;;;;;;;;;;;;;;;5092515;28;19912;-78
2022/09/01 05:18:08;;;;;;;;;;;;;;;;;;5092176;28;19924;-79
2022/09/01 05:20:40;;;;;;;;;;;;;;;;;;5093647;28;19912;-78
2022/09/01 05:23:06;;;;;;;;;;;;;;;;;;5092293;28;20451;-77
2022/09/01 05:25:37;;;;;;;;;;;;;;;;;;5093568;28;19916;-77
2022/09/01 05:28:03;;;;;;;;;;;;;;;;;;5075390;28;20053;-76
2022/09/01 05:30:28;;;;;;;;;;;;;;;;;;5075657;28;19947;-77
2022/09/01 05:32:53;;;;;;;;;;;;;;;;;;5093803;28;19924;-76
2022/09/01 05:35:19;;;;;;;;;;;;;;;;;;5093438;28;19920;-77
2022/09/01 05:37:44;;;;;;;;;;;;;;;;;;5093267;28;19926;-77
2022/09/01 05:40:14;;;;;;;;;;;;;;;;;;5092383;28;19916;-79
2022/09/01 05:42:41;;;;;;;;;;;;;;;;;;5092665;28;20007;-78
2022/09/01 05:45:06;;;;;;;;;;;;;;;;;;5093671;28;19912;-77
2022/09/01 05:47:35;;;;;;;;;;;;;;;;;;5093646;28;19923;-79
2022/09/01 05:50:02;;;;;;;;;;;;;;;;;;5093662;28;19916;-77
2022/09/01 05:52:30;;;;;;;;;;;;;;;;;;5093460;28;19912;-76
2022/09/01 05:54:58;;;;;;;;;;;;;;;;;;5075202;28;20286;-77
2022/09/01 05:57:24;;;;;;;;;;;;;;;;;;5093489;28;20023;-76
2022/09/01 05:59:52;;;;;;;;;;;;;;;;;;5093964;28;20016;-77
2022/09/01 06:02:18;;;;;;;;;;;;;;;;;;5095733;28;19927;-77
2022/09/01 06:04:43;;;;;;;;;;;;;;;;;;5096661;28;19931;-77
2022/09/01 06:07:13;;;;;;;;;;;;;;;;;;5078690;28;19920;-76
2022/09/01 06:09:42;;;;;;;;;;;;;;;;;;5095536;28;19912;-77
2022/09/01 06:12:16;;;;;;;;;;;;;;;;;;5096083;28;19912;-77
2022/09/01 06:14:41;;;;;;;;;;;;;;;;;;5096139;28;20354;-76
2022/09/01 06:17:08;;;;;;;;;;;;;;;;;;5096536;28;19967;-76
2022/09/01 06:19:34;;;;;;;;;;;;;;;;;;5078392;28;20386;-77
2022/09/01 06:22:00;;;;;;;;;;;;;;;;;;5095343;28;19931;-77
2022/09/01 06:24:27;;;;;;;;;;;;;;;;;;5096805;28;20388;-77
2022/09/01 06:26:53;;;;;;;;;;;;;;;;;;5095801;28;20362;-77
2022/09/01 06:29:19;;;;;;;;;;;;;;;;;;5095199;28;19912;-77
2022/09/01 06:31:50;;;;;;;;;;;;;;;;;;5078302;28;19920;-77
2022/09/01 06:34:17;;;;;;;;;;;;;;;;;;5096816;28;19916;-77
2022/09/01 06:36:42;;;;;;;;;;;;;;;;;;5095469;28;20375;-76
2022/09/01 06:39:08;;;;;;;;;;;;;;;;;;5095559;28;19923;-77
2022/09/01 06:41:35;;;;;;;;;;;;;;;;;;5077910;28;19973;-77
2022/09/01 06:44:00;;;;;;;;;;;;;;;;;;5094932;28;19918;-77
2022/09/01 06:46:29;;;;;;;;;;;;;;;;;;5096331;28;20015;-77
2022/09/01 06:48:57;;;;;;;;;;;;;;;;;;5095147;28;19985;-77
2022/09/01 06:51:24;;;;;;;;;;;;;;;;;;5077843;28;19916;-77
2022/09/01 06:53:55;;;;;;;;;;;;;;;;;;5077835;28;20260;-77
2022/09/01 06:56:21;;;;;;;;;;;;;;;;;;5094878;28;19912;-77
2022/09/01 06:58:47;;;;;;;;;;;;;;;;;;5077554;28;19939;-77
2022/09/01 07:01:19;;;;;;;;;;;;;;;;;;5094431;28;19989;-76
2022/09/01 07:03:46;;;;;;;;;;;;;;;;;;5094357;28;20374;-77
2022/09/01 07:06:12;;;;;;;;;;;;;;;;;;5094413;28;19912;-77
2022/09/01 07:08:40;;;;;;;;;;;;;;;;;;5077481;28;19966;-77
2022/09/01 07:11:16;;;;;;;;;;;;;;;;;;5095818;28;19922;-77
2022/09/01 07:13:44;;;;;;;;;;;;;;;;;;5093754;28;19995;-77
2022/09/01 07:16:17;;;;;;;;;;;;;;;;;;5094498;28;19923;-77
2022/09/01 07:18:42;;;;;;;;;;;;;;;;;;5094575;28;19916;-77
2022/09/01 07:21:08;;;;;;;;;;;;;;;;;;5094360;28;20252;-78
2022/09/01 07:23:33;;;;;;;;;;;;;;;;;;5095895;28;19923;-77
2022/09/01 07:25:59;;;;;;;;;;;;;;;;;;5077104;28;19943;-77
2022/09/01 07:28:28;;;;;;;;;;;;;;;;;;5094223;28;19935;-77
2022/09/01 07:30:54;;;;;;;;;;;;;;;;;;5094026;28;19916;-77
2022/09/01 07:33:22;;;;;;;;;;;;;;;;;;5095571;28;19932;-77
2022/09/01 07:35:48;;;;;;;;;;;;;;;;;;5076950;28;20428;-77
2022/09/01 07:38:14;;;;;;;;;;;;;;;;;;5093845;28;19916;-77
2022/09/01 07:40:40;;;;;;;;;;;;;;;;;;5094940;28;19946;-77
2022/09/01 07:43:07;;;;;;;;;;;;;;;;;;5076828;28;19912;-76
2022/09/01 07:45:34;;;;;;;;;;;;;;;;;;5095209;28;20355;-77
2022/09/01 07:48:05;;;;;;;;;;;;;;;;;;5094078;28;19944;-76
2022/09/01 07:50:30;;;;;;;;;;;;;;;;;;5076680;28;19912;-77
2022/09/01 07:52:56;;;;;;;;;;;;;;;;;;5094804;28;19950;-77
2022/09/01 07:55:21;;;;;;;;;;;;;;;;;;5093872;28;19943;-77
2022/09/01 07:57:46;;;;;;;;;;;;;;;;;;5094696;28;19963;-76
2022/09/01 08:00:12;;;;;;;;;;;;;;;;;;5095145;28;20370;-77
2022/09/01 08:02:42;;;;;;;;;;;;;;;;;;5093802;28;20033;-77
2022/09/01 08:05:09;;;;;;;;;;;;;;;;;;5076516;28;19912;-77
2022/09/01 08:07:35;;;;;;;;;;;;;;;;;;5076367;28;19920;-77
2022/09/01 08:10:00;;;;;;;;;;;;;;;;;;5076306;28;19917;-76
2022/09/01 08:12:26;;;;;;;;;;;;;;;;;;5094720;28;19916;-77
2022/09/01 08:14:52;;;;;;;;;;;;;;;;;;5094692;28;20341;-77
2022/09/01 08:17:17;;;;;;;;;;;;;;;;;;5094243;28;19923;-77
2022/09/01 08:19:42;;;;;;;;;;;;;;;;;;5093209;28;19912;-77
2022/09/01 08:22:08;;;;;;;;;;;;;;;;;;5092203;28;20362;-77
2022/09/01 08:24:33;;;;;;;;;;;;;;;;;;5093904;28;19920;-77
2022/09/01 08:26:58;;;;;;;;;;;;;;;;;;5094553;28;20445;-77
2022/09/01 08:29:24;;;;;;;;;;;;;;;;;;5094176;28;20011;-77
2022/09/01 08:31:49;;;;;;;;;;;;;;;;;;5094395;28;20346;-77
2022/09/01 08:34:15;;;;;;;;;;;;;;;;;;5092939;28;19921;-77
2022/09/01 08:36:41;;;;;;;;;;;;;;;;;;5075931;28;19917;-77
2022/09/01 08:39:06;;;;;;;;;;;;;;;;;;5075926;28;19928;-77
2022/09/01 08:41:40;;;;;;;;;;;;;;;;;;5075814;28;19923;-76
2022/09/01 08:44:09;;;;;;;;;;;;;;;;;;5092807;28;19919;-77
2022/09/01 08:46:36;;;;;;;;;;;;;;;;;;5075925;28;19916;-77
2022/09/01 08:49:06;;;;;;;;;;;;;;;;;;5075831;28;19912;-77
2022/09/01 08:51:34;;;;;;;;;;;;;;;;;;5093909;28;20289;-78
2022/09/01 08:53:59;;;;;;;;;;;;;;;;;;5092703;28;20295;-76
2022/09/01 08:56:25;;;;;;;;;;;;;;;;;;5094141;28;19918;-77
2022/09/01 08:58:50;;;;;;;;;;;;;;;;;;5092906;28;19959;-77
2022/09/01 09:01:26;;;;;;;;;;;;;;;;;;5093018;28;19916;-77
2022/09/01 09:03:57;;;;;;;;;;;;;;;;;;5092534;28;19926;-77
2022/09/01 09:06:25;;;;;;;;;;;;;;;;;;5093863;28;20327;-77
2022/09/01 09:09:02;;;;;;;;;;;;;;;;;;5092871;28;19912;-77
2022/09/01 09:11:46;;;;;;;;;;;;;;;;;;5093201;28;20007;-77
2022/09/01 09:14:17;;;;;;;;;;;;;;;;;;5093755;28;19912;-77
2022/09/01 09:16:47;;;;;;;;;;;;;;;;;;5094012;28;19943;-77
2022/09/01 09:19:23;;;;;;;;;;;;;;;;;;5092404;28;20006;-77
2022/09/01 09:21:50;;;;;;;;;;;;;;;;;;5092536;28;20041;-77
2022/09/01 09:24:50;;;;;;;;;;;;;;;;;;5092448;28;19934;-77
2022/09/01 09:27:26;;;;;;;;;;;;;;;;;;5050569;28;19912;-77
2022/09/01 09:30:01;;;;;;;;;;;;;;;;;;5075428;28;20324;-77
2022/09/01 09:32:46;;;;;;;;;;;;;;;;;;5092467;28;20286;-77
2022/09/01 09:35:16;;;;;;;;;;;;;;;;;;5092606;28;19916;-77
2022/09/01 09:37:41;;;;;;;;;;;;;;;;;;5096241;28;19916;-77
2022/09/01 09:40:09;;;;;;;;;;;;;;;;;;5097610;28;20358;-77
2022/09/01 09:42:38;;;;;;;;;;;;;;;;;;5097305;28;20420;-77
2022/09/01 09:45:04;;;;;;;;;;;;;;;;;;5096339;28;19912;-76
2022/09/01 09:47:34;;;;;;;;;;;;;;;;;;5079617;28;19920;-77
2022/09/01 09:50:18;;;;;;;;;;;;;;;;;;5096282;28;20019;-77
2022/09/01 09:52:45;;;;;;;;;;;;;;;;;;5078961;28;19912;-77
2022/09/01 09:55:21;;;;;;;;;;;;;;;;;;5078825;28;19918;-77
2022/09/01 09:57:47;;;;;;;;;;;;;;;;;;5096910;28;19920;-77
2022/09/01 10:00:12;;;;;;;;;;;;;;;;;;5096029;28;20411;-77
2022/09/01 10:02:38;;;;;;;;;;;;;;;;;;5078736;28;19923;-77
2022/09/01 10:05:19;;;;;;;;;;;;;;;;;;5096773;28;20011;-77
2022/09/01 10:07:44;;;;;;;;;;;;;;;;;;5096797;28;19926;-77
2022/09/01 10:10:25;;;;;;;;;;;;;;;;;;5096748;28;19920;-77
2022/09/01 10:12:53;;;;;;;;;;;;;;;;;;5096989;28;20278;-77
2022/09/01 10:15:20;;;;;;;;;;;;;;;;;;5078489;28;20121;-77
2022/09/01 10:17:46;;;;;;;;;;;;;;;;;;5095440;28;19917;-77
2022/09/01 10:20:13;;;;;;;;;;;;;;;;;;5095685;28;19919;-77
2022/09/01 10:22:38;;;;;;;;;;;;;;;;;;5095158;28;19973;-78
2022/09/01 10:25:05;;;;;;;;;;;;;;;;;;5061614;28;19995;-78
2022/09/01 10:27:31;;;;;;;;;;;;;;;;;;5078244;28;19920;-78
2022/09/01 10:30:06;;;;;;;;;;;;;;;;;;5078289;28;19919;-77
2022/09/01 10:32:57;;;;;;;;;;;;;;;;;;5078214;28;19954;-77
2022/09/01 10:35:27;;;;;;;;;;;;;;;;;;5092399;28;19924;-77
2022/09/01 10:37:52;;;;;;;;;;;;;;;;;;5061333;28;19916;-77
2022/09/01 10:40:21;;;;;;;;;;;;;;;;;;5061387;28;19919;-77
2022/09/01 10:42:53;;;;;;;;;;;;;;;;;;5096682;28;19912;-78
2022/09/01 10:45:37;;;;;;;;;;;;;;;;;;5079255;28;20016;-77
2022/09/01 10:48:20;;;;;;;;;;;;;;;;;;5077801;28;19912;-77
2022/09/01 10:50:46;;;;;;;;;;;;;;;;;;5096252;28;19919;-77
2022/09/01 10:53:30;;;;;;;;;;;;;;;;;;5095994;28;20294;-78
2022/09/01 10:56:05;;;;;;;;;;;;;;;;;;5096156;28;20332;-77
2022/09/01 10:58:49;;;;;;;;;;;;;;;;;;5077716;28;19923;-77
2022/09/01 11:01:14;;;;;;;;;;;;;;;;;;5077526;28;20267;-80
2022/09/01 11:03:53;;;;;;;;;;;;;;;;;;5095675;28;19923;-79
2022/09/01 11:06:31;;;;;;;;;;;;;;;;;;5060814;28;19916;-79
2022/09/01 11:09:02;;;;;;;;;;;;;;;;;;5060894;28;19919;-79
2022/09/01 11:11:29;;;;;;;;;;;;;;;;;;5077580;28;19916;-77
2022/09/01 11:13:55;;;;;;;;;;;;;;;;;;5060667;28;19912;-79
2022/09/01 11:16:23;;;;;;;;;;;;;;;;;;5077788;28;19919;-79
2022/09/01 11:18:49;;;;;;;;;;;;;;;;;;5095404;28;19917;-79
2022/09/01 11:21:16;;;;;;;;;;;;;;;;;;5077831;28;20012;-80
2022/09/01 11:23:42;;;;;;;;;;;;;;;;;;5077281;28;20290;-80
2022/09/01 11:26:26;;;;;;;;;;;;;;;;;;5060471;28;20006;-78
2022/09/01 11:28:51;;;;;;;;;;;;;;;;;;5095353;28;20290;-78
2022/09/01 11:31:40;;;;;;;;;;;;;;;;;;5095172;28;19916;-78
2022/09/01 11:34:13;;;;;;;;;;;;;;;;;;5066708;28;19920;-78
2022/09/01 11:36:46;;;;;;;;;;;;;;;;;;5076929;28;20381;-78
2022/09/01 11:39:14;;;;;;;;;;;;;;;;;;5060278;28;19923;-78
2022/09/01 11:41:40;;;;;;;;;;;;;;;;;;5076796;28;19938;-78
2022/09/01 11:44:24;;;;;;;;;;;;;;;;;;5076724;28;19912;-78
2022/09/01 11:46:49;;;;;;;;;;;;;;;;;;5095226;28;19995;-78
2022/09/01 11:49:28;;;;;;;;;;;;;;;;;;5077114;28;19958;-78
2022/09/01 11:51:53;;;;;;;;;;;;;;;;;;5095072;28;19916;-78
2022/09/01 11:54:18;;;;;;;;;;;;;;;;;;5077071;28;20301;-78
2022/09/01 11:56:43;;;;;;;;;;;;;;;;;;5077229;28;20324;-78
2022/09/01 11:59:09;;;;;;;;;;;;;;;;;;5076143;28;19924;-77
2022/09/01 12:01:35;;;;;;;;;;;;;;;;;;5076514;28;19912;-78
2022/09/01 12:04:21;;;;;;;;;;;;;;;;;;5076381;28;19919;-78
2022/09/01 12:06:50;;;;;;;;;;;;;;;;;;5094545;28;20402;-77
2022/09/01 12:09:16;;;;;;;;;;;;;;;;;;5076401;28;19912;-80
2022/09/01 12:11:41;;;;;;;;;;;;;;;;;;5059711;28;20294;-78
2022/09/01 12:14:08;;;;;;;;;;;;;;;;;;5094807;28;19942;-78
2022/09/01 12:16:38;;;;;;;;;;;;;;;;;;5076390;28;19912;-79
2022/09/01 12:19:04;;;;;;;;;;;;;;;;;;5078417;28;19916;-79
2022/09/01 12:21:39;;;;;;;;;;;;;;;;;;5061425;28;20362;-78
2022/09/01 12:24:14;;;;;;;;;;;;;;;;;;5076915;28;20002;-79
2022/09/01 12:26:40;;;;;;;;;;;;;;;;;;5079089;28;20030;-79
2022/09/01 12:29:05;;;;;;;;;;;;;;;;;;5078333;28;19916;-79
2022/09/01 12:31:31;;;;;;;;;;;;;;;;;;5077943;28;20382;-79
2022/09/01 12:33:56;;;;;;;;;;;;;;;;;;5095956;28;19935;-79
2022/09/01 12:36:24;;;;;;;;;;;;;;;;;;5078861;28;19938;-79
2022/09/01 12:38:50;;;;;;;;;;;;;;;;;;5077393;28;20378;-79
2022/09/01 12:41:31;;;;;;;;;;;;;;;;;;5094823;28;19912;-79
2022/09/01 12:43:56;;;;;;;;;;;;;;;;;;5077318;28;19919;-79
2022/09/01 12:46:42;;;;;;;;;;;;;;;;;;5094431;28;20324;-77
2022/09/01 12:49:17;;;;;;;;;;;;;;;;;;5077500;28;19923;-80
2022/09/01 12:51:47;;;;;;;;;;;;;;;;;;5094174;28;19991;-77
2022/09/01 12:54:12;;;;;;;;;;;;;;;;;;5094280;28;19912;-79
2022/09/01 12:56:38;;;;;;;;;;;;;;;;;;5094984;28;19919;-80
2022/09/01 12:59:03;;;;;;;;;;;;;;;;;;5097005;28;19920;-80
2022/09/01 13:01:30;;;;;;;;;;;;;;;;;;5077697;28;19920;-79
2022/09/01 13:04:25;;;;;;;;;;;;;;;;;;5094285;28;19912;-79
2022/09/01 13:06:51;;;;;;;;;;;;;;;;;;5077600;28;19912;-79
2022/09/01 13:09:17;;;;;;;;;;;;;;;;;;5076803;28;19919;-79
2022/09/01 13:11:43;;;;;;;;;;;;;;;;;;5097890;28;20366;-79
2022/09/01 13:14:08;;;;;;;;;;;;;;;;;;5098685;28;19912;-80
2022/09/01 13:16:35;;;;;;;;;;;;;;;;;;5099706;28;19948;-79
2022/09/01 13:19:00;;;;;;;;;;;;;;;;;;5101114;28;19920;-79
2022/09/01 13:21:26;;;;;;;;;;;;;;;;;;5098347;28;19916;-78
2022/09/01 13:23:52;;;;;;;;;;;;;;;;;;5097608;28;19955;-78
2022/09/01 13:26:17;;;;;;;;;;;;;;;;;;5079722;28;19912;-79
2022/09/01 13:28:42;;;;;;;;;;;;;;;;;;5082114;28;19916;-79
2022/09/01 13:31:07;;;;;;;;;;;;;;;;;;5098274;28;19922;-78
2022/09/01 13:33:33;;;;;;;;;;;;;;;;;;5080500;28;20443;-79
2022/09/01 13:35:59;;;;;;;;;;;;;;;;;;5098365;28;19912;-78
2022/09/01 13:38:24;;;;;;;;;;;;;;;;;;5097194;28;19962;-79
2022/09/01 13:40:50;;;;;;;;;;;;;;;;;;5098154;28;19912;-78
2022/09/01 13:43:16;;;;;;;;;;;;;;;;;;5086153;28;19987;-79
2022/09/01 13:45:42;;;;;;;;;;;;;;;;;;5098255;28;20380;-79
2022/09/01 13:48:07;;;;;;;;;;;;;;;;;;5080807;28;19916;-80
2022/09/01 13:50:33;;;;;;;;;;;;;;;;;;5097871;28;19913;-80
2022/09/01 13:52:58;;;;;;;;;;;;;;;;;;5098624;28;19912;-79
2022/09/01 13:55:25;;;;;;;;;;;;;;;;;;5098721;28;19912;-80
2022/09/01 13:57:50;;;;;;;;;;;;;;;;;;5097255;28;19921;-80
2022/09/01 14:00:18;;;;;;;;;;;;;;;;;;5097975;28;20271;-80
2022/09/01 14:02:49;;;;;;;;;;;;;;;;;;5080924;28;19990;-79
2022/09/01 14:05:18;;;;;;;;;;;;;;;;;;5067544;28;19999;-79
2022/09/01 14:07:43;;;;;;;;;;;;;;;;;;5076490;28;19912;-79
2022/09/01 14:10:09;;;;;;;;;;;;;;;;;;5076698;28;20439;-78
2022/09/01 14:12:36;;;;;;;;;;;;;;;;;;5076572;28;19913;-79
2022/09/01 14:15:01;;;;;;;;;;;;;;;;;;5075948;28;20003;-79
2022/09/01 14:17:26;;;;;;;;;;;;;;;;;;5075827;28;20035;-79
2022/09/01 14:19:52;;;;;;;;;;;;;;;;;;5076771;28;19916;-80
2022/09/01 14:22:17;;;;;;;;;;;;;;;;;;5061094;28;19927;-79
2022/09/01 14:24:43;;;;;;;;;;;;;;;;;;5112560;28;19916;-79
2022/09/01 14:27:08;;;;;;;;;;;;;;;;;;5095558;28;19912;-80
2022/09/01 14:29:33;;;;;;;;;;;;;;;;;;5078403;28;20003;-80
2022/09/01 14:31:59;;;;;;;;;;;;;;;;;;5096783;28;20417;-80
2022/09/01 14:34:24;;;;;;;;;;;;;;;;;;5093539;28;19967;-79
2022/09/01 14:36:56;;;;;;;;;;;;;;;;;;5041830;28;19916;-80
2022/09/01 14:39:22;;;;;;;;;;;;;;;;;;5042436;28;19971;-79
2022/09/01 14:41:47;;;;;;;;;;;;;;;;;;5041707;28;19916;-80
2022/09/01 14:44:13;;;;;;;;;;;;;;;;;;5060649;28;20302;-78
2022/09/01 14:46:38;;;;;;;;;;;;;;;;;;5062412;28;19917;-81
2022/09/01 14:49:04;;;;;;;;;;;;;;;;;;5056715;28;19995;-80
2022/09/01 14:51:29;;;;;;;;;;;;;;;;;;5036493;28;19917;-80
2022/09/01 14:53:55;;;;;;;;;;;;;;;;;;5058070;28;19924;-79
2022/09/01 14:56:21;;;;;;;;;;;;;;;;;;5074556;28;19920;-79
2022/09/01 14:58:47;;;;;;;;;;;;;;;;;;5058153;28;19916;-80
2022/09/01 15:01:16;;;;;;;;;;;;;;;;;;5074999;28;20263;-80
2022/09/01 15:03:42;;;;;;;;;;;;;;;;;;5059035;28;19913;-79
2022/09/01 15:06:10;;;;;;;;;;;;;;;;;;5076089;28;20375;-80
2022/09/01 15:08:35;;;;;;;;;;;;;;;;;;5075222;28;19912;-80
2022/09/01 15:11:01;;;;;;;;;;;;;;;;;;5059012;28;20022;-79
2022/09/01 15:13:26;;;;;;;;;;;;;;;;;;5057810;28;20367;-79
2022/09/01 15:15:52;;;;;;;;;;;;;;;;;;5058629;28;19912;-79
2022/09/01 15:18:17;;;;;;;;;;;;;;;;;;5058664;28;19927;-80
2022/09/01 15:20:45;;;;;;;;;;;;;;;;;;5059495;28;19924;-81
2022/09/01 15:23:21;;;;;;;;;;;;;;;;;;5071705;28;20021;-81
2022/09/01 15:25:51;;;;;;;;;;;;;;;;;;5071888;28;20271;-80
2022/09/01 15:28:19;;;;;;;;;;;;;;;;;;5049829;28;19920;-78
2022/09/01 15:30:44;;;;;;;;;;;;;;;;;;5038040;28;19913;-81
2022/09/01 15:33:10;;;;;;;;;;;;;;;;;;5053705;28;20267;-81
2022/09/01 15:35:35;;;;;;;;;;;;;;;;;;5055206;28;20307;-80
2022/09/01 15:38:01;;;;;;;;;;;;;;;;;;5056226;28;19921;-79
2022/09/01 15:40:26;;;;;;;;;;;;;;;;;;5039375;28;20011;-80
2022/09/01 15:42:53;;;;;;;;;;;;;;;;;;5056316;28;20356;-80
2022/09/01 15:45:19;;;;;;;;;;;;;;;;;;5039786;28;19913;-78
2022/09/01 15:47:47;;;;;;;;;;;;;;;;;;5038632;28;20011;-79
2022/09/01 15:50:12;;;;;;;;;;;;;;;;;;5040280;28;19913;-81
2022/09/01 15:52:53;;;;;;;;;;;;;;;;;;5038699;28;19917;-81
2022/09/01 15:55:27;;;;;;;;;;;;;;;;;;5156379;27;19946;-83
2022/09/01 15:57:53;;;;;;;;;;;;;;;;;;5155812;27;19926;-82
2022/09/01 16:00:19;;;;;;;;;;;;;;;;;;5136823;27;19965;-81
2022/09/01 16:02:44;;;;;;;;;;;;;;;;;;5136518;27;19911;-81
2022/09/01 16:05:09;;;;;;;;;;;;;;;;;;5154923;27;19923;-83
2022/09/01 16:07:35;;;;;;;;;;;;;;;;;;5137034;27;19911;-89
2022/09/01 16:10:00;;;;;;;;;;;;;;;;;;5119852;27;19919;-87
2022/09/01 16:12:27;;;;;;;;;;;;;;;;;;5119579;27;20018;-85
2022/09/01 16:14:53;;;;;;;;;;;;;;;;;;5119300;27;20396;-78
2022/09/01 16:17:19;;;;;;;;;;;;;;;;;;5136373;27;20310;-78
2022/09/01 16:19:44;;;;;;;;;;;;;;;;;;5135127;27;19912;-78
2022/09/01 16:22:50;;;;;;;;;;;;;;;;;;5153633;27;19923;-79
2022/09/01 16:25:22;;;;;;;;;;;;;;;;;;5152239;27;19924;-79
2022/09/01 16:27:48;;;;;;;;;;;;;;;;;;5134284;27;19919;-80
2022/09/01 16:30:15;;;;;;;;;;;;;;;;;;5117602;27;19915;-79
2022/09/01 16:32:42;;;;;;;;;;;;;;;;;;5117367;27;19922;-80
2022/09/01 16:35:08;;;;;;;;;;;;;;;;;;5134137;27;19915;-79
2022/09/01 16:37:42;;;;;;;;;;;;;;;;;;5152653;27;19942;-79
2022/09/01 16:40:12;;;;;;;;;;;;;;;;;;5152565;27;19931;-79
2022/09/01 16:42:47;;;;;;;;;;;;;;;;;;5117533;27;19915;-79
2022/09/01 16:45:14;;;;;;;;;;;;;;;;;;5134822;27;19911;-78
2022/09/01 16:47:39;;;;;;;;;;;;;;;;;;5116727;27;19911;-79
2022/09/01 16:50:08;;;;;;;;;;;;;;;;;;5133888;27;19918;-80
2022/09/01 16:52:57;;;;;;;;;;;;;;;;;;5134352;27;19919;-79
2022/09/01 16:55:42;;;;;;;;;;;;;;;;;;5083914;28;20015;-82
2022/09/01 16:58:07;;;;;;;;;;;;;;;;;;5095401;28;20363;-80